KRHI/RHI METAR and TAF weather

Enter ICAO airport designator
Station Type Date Time Source
KRHI METAR 2021/05/12 01:53 UTC NOAA

KRHI 120153Z AUTO 00000KT 10SM CLR 09/M06 A3038 RMK AO2 SLP297 T00891056


Station Type Date Time Source
KRHI Decoded METAR 2021/05/12 01:53 UTC NOAA

RHINELANDER-ONEIDA CO AIRPORT , WI, United States (KRHI) 45-38N 89-29W 485M
May 11, 2021 - 09:53 PM EDT / 2021.05.12 0153 UTC
Wind: Calm:0
Visibility: 10 mile(s):0
Sky conditions: clear
Temperature: 48.0 F (8.9 C)
Dew Point: 21.9 F (-5.6 C)
Relative Humidity: 35%
Pressure (altimeter): 30.38 in. Hg (1028 hPa)
ob: KRHI 120153Z AUTO 00000KT 10SM CLR 09/M06 A3038 RMK AO2 SLP297 T00891056
cycle: 2

Station Type Date Time Source
KRHI TAF 2021/05/11 21:42 UTC NOAA

TAF
AMD KRHI 112040Z 1121/1218 34007G15KT P6SM SCT080
FM112300 34006KT P6SM SKC
FM120000 35004KT P6SM SKC
FM120200 VRB03KT P6SM SKC
FM121600 30003KT P6SM SCT150

Example: see airport list